createdAt,value
2022-11-24T00:01:57.066Z,4.95
2022-11-24T00:04:43.927Z,5.29
2022-11-24T00:07:30.936Z,5.42
2022-11-24T00:10:18.282Z,5.31
2022-11-24T00:13:05.122Z,5.30
2022-11-24T00:15:52.050Z,5.25
2022-11-24T00:18:40.551Z,5.30
2022-11-24T00:21:28.863Z,5.28
2022-11-24T00:24:15.803Z,4.89
2022-11-24T00:27:02.588Z,5.08
2022-11-24T00:29:49.449Z,5.25
2022-11-24T00:32:36.314Z,5.29
2022-11-24T00:35:23.098Z,5.58
2022-11-24T00:38:10.010Z,5.56
2022-11-24T00:40:56.835Z,5.66
2022-11-24T00:43:43.672Z,5.54
2022-11-24T00:46:30.788Z,5.58
2022-11-24T00:49:17.656Z,5.69
2022-11-24T00:52:04.625Z,5.81
2022-11-24T00:54:51.373Z,5.70
2022-11-24T00:57:38.123Z,5.53
2022-11-24T01:00:25.232Z,5.93
2022-11-24T01:03:13.829Z,5.90
2022-11-24T01:06:08.924Z,6.05
2022-11-24T01:08:57.290Z,6.07
2022-11-24T01:12:02.371Z,6.12
2022-11-24T01:14:49.186Z,6.13
2022-11-24T01:17:36.005Z,6.18
2022-11-24T01:20:23.396Z,6.06
2022-11-24T01:23:10.184Z,5.99
2022-11-24T01:25:56.959Z,6.01
2022-11-24T01:28:46.980Z,5.96
2022-11-24T01:31:34.196Z,5.89
2022-11-24T01:34:21.056Z,6.05
2022-11-24T01:37:07.874Z,6.08
2022-11-24T01:39:54.698Z,6.21
2022-11-24T01:42:52.645Z,6.29
2022-11-24T01:45:41.056Z,6.33
2022-11-24T01:48:32.628Z,6.32
2022-11-24T01:51:26.716Z,6.31
2022-11-24T01:54:22.357Z,6.38
2022-11-24T01:57:30.647Z,6.34
2022-11-24T02:00:18.748Z,6.43
2022-11-24T02:03:05.685Z,6.51
2022-11-24T02:06:03.144Z,6.52
2022-11-24T02:09:06.959Z,6.48
2022-11-24T02:11:55.011Z,6.47
2022-11-24T02:14:43.974Z,6.50
2022-11-24T02:17:30.852Z,6.45
2022-11-24T02:20:18.347Z,6.30
2022-11-24T02:23:24.702Z,6.42
2022-11-24T02:26:44.484Z,6.52
2022-11-24T02:29:31.486Z,6.40
2022-11-24T02:32:19.353Z,6.41
2022-11-24T02:35:08.047Z,6.45
2022-11-24T02:37:54.987Z,6.47
2022-11-24T02:40:46.551Z,6.47
2022-11-24T02:43:39.556Z,6.46
2022-11-24T02:46:26.379Z,6.54
2022-11-24T02:49:13.207Z,6.52
2022-11-24T02:52:00.528Z,6.48
2022-11-24T02:54:47.348Z,6.60
2022-11-24T02:57:34.352Z,6.63
2022-11-24T03:00:21.900Z,6.60
2022-11-24T03:03:08.820Z,6.59
2022-11-24T03:05:55.647Z,6.62
2022-11-24T03:08:42.490Z,6.75
2022-11-24T03:11:29.395Z,6.75
2022-11-24T03:14:16.252Z,6.59
2022-11-24T03:17:04.029Z,6.70
2022-11-24T03:19:50.802Z,6.74
2022-11-24T03:22:37.609Z,6.74
2022-11-24T03:25:24.443Z,6.85
2022-11-24T03:28:12.587Z,6.94
2022-11-24T03:30:59.437Z,6.95
2022-11-24T03:33:39.936Z,6.83
2022-11-24T03:36:08.023Z,6.84
2022-11-24T03:38:34.591Z,6.96
2022-11-24T03:41:01.056Z,6.93
2022-11-24T03:43:27.564Z,6.98
2022-11-24T03:45:55.395Z,6.92
2022-11-24T03:48:22.457Z,7.00
2022-11-24T03:50:57.492Z,6.99
2022-11-24T03:53:26.020Z,6.99
2022-11-24T03:55:52.612Z,7.01
2022-11-24T03:58:19.702Z,6.93
2022-11-24T04:00:48.569Z,6.91
2022-11-24T04:03:15.467Z,6.88
2022-11-24T04:05:42.038Z,7.00
2022-11-24T04:08:08.793Z,7.01
2022-11-24T04:10:37.004Z,7.07
2022-11-24T04:13:05.227Z,7.10
2022-11-24T04:15:31.794Z,7.08
2022-11-24T04:17:58.315Z,7.12
2022-11-24T04:20:25.019Z,7.04
2022-11-24T04:22:51.999Z,7.23
2022-11-24T04:25:18.894Z,7.23
2022-11-24T04:27:45.965Z,7.18
2022-11-24T04:30:12.744Z,7.31
2022-11-24T04:32:39.231Z,7.29
2022-11-24T04:35:06.170Z,7.38
2022-11-24T04:37:34.583Z,7.34
2022-11-24T04:40:01.051Z,7.36
2022-11-24T04:42:27.624Z,7.34
2022-11-24T04:44:54.180Z,7.30
2022-11-24T04:47:23.270Z,7.34
2022-11-24T04:49:50.522Z,7.33
2022-11-24T04:52:22.525Z,7.34
2022-11-24T04:54:49.827Z,7.39
2022-11-24T04:57:22.837Z,7.37
2022-11-24T04:59:53.366Z,7.33
2022-11-24T05:02:20.257Z,7.19
2022-11-24T05:04:47.332Z,7.33
2022-11-24T05:07:18.817Z,7.41
2022-11-24T05:10:06.127Z,7.37
2022-11-24T05:12:32.965Z,7.30
2022-11-24T05:15:00.927Z,7.18
2022-11-24T05:17:33.065Z,7.09
2022-11-24T05:19:59.640Z,7.06
2022-11-24T05:22:28.192Z,7.22
2022-11-24T05:24:54.691Z,7.20
2022-11-24T05:27:21.585Z,7.19
2022-11-24T05:29:48.086Z,7.00
2022-11-24T05:32:14.656Z,7.09
2022-11-24T05:34:41.200Z,7.22
2022-11-24T05:37:08.399Z,7.20
2022-11-24T05:39:36.367Z,7.16
2022-11-24T05:42:23.240Z,7.10
2022-11-24T05:44:49.904Z,7.07
2022-11-24T05:47:16.791Z,7.04
2022-11-24T05:49:43.388Z,7.03
2022-11-24T05:52:10.004Z,6.98
2022-11-24T05:54:36.624Z,6.97
2022-11-24T05:57:03.318Z,6.87
2022-11-24T05:59:29.785Z,6.67
2022-11-24T06:01:56.410Z,6.57
2022-11-24T06:04:23.052Z,6.50
2022-11-24T06:06:49.594Z,6.30
2022-11-24T06:09:16.587Z,6.19
2022-11-24T06:11:43.227Z,6.09
2022-11-24T06:14:11.444Z,5.96
2022-11-24T06:16:38.557Z,5.78
2022-11-24T06:19:05.268Z,5.69
2022-11-24T06:21:31.804Z,5.78
2022-11-24T06:23:58.626Z,5.78
2022-11-24T06:26:25.190Z,5.74
2022-11-24T06:28:51.716Z,5.68
2022-11-24T06:31:18.655Z,5.68
2022-11-24T06:33:45.216Z,5.89
2022-11-24T06:36:13.344Z,6.11
2022-11-24T06:38:40.032Z,6.28
2022-11-24T06:41:12.622Z,6.23
2022-11-24T06:43:39.206Z,6.31
2022-11-24T06:46:06.296Z,6.70
2022-11-24T06:48:33.378Z,6.74
2022-11-24T06:51:05.258Z,6.64
2022-11-24T06:53:33.782Z,6.41
2022-11-24T06:56:01.920Z,6.25
2022-11-24T06:58:28.384Z,6.38
2022-11-24T07:00:54.922Z,6.46
2022-11-24T07:03:22.295Z,6.71
2022-11-24T07:05:48.855Z,6.47
2022-11-24T07:08:18.029Z,6.69
2022-11-24T07:10:45.427Z,7.15
2022-11-24T07:13:11.885Z,7.27
2022-11-24T07:15:38.407Z,7.31
2022-11-24T07:18:05.033Z,7.11
2022-11-24T07:20:31.645Z,7.14
2022-11-24T07:22:58.820Z,7.21
2022-11-24T07:25:26.034Z,7.13
2022-11-24T07:27:57.108Z,7.20
2022-11-24T07:30:24.611Z,7.16
2022-11-24T07:32:51.372Z,7.19
2022-11-24T07:35:17.943Z,7.23
2022-11-24T07:37:44.491Z,7.53
2022-11-24T07:40:11.549Z,7.89
2022-11-24T07:42:37.976Z,8.24
2022-11-24T07:45:04.795Z,8.68
2022-11-24T07:47:31.271Z,9.28
2022-11-24T07:49:57.718Z,9.24
2022-11-24T07:52:26.764Z,9.16
2022-11-24T07:54:53.372Z,9.93
2022-11-24T07:57:19.867Z,10.51
2022-11-24T07:59:46.397Z,10.63
2022-11-24T08:02:13.408Z,10.39
2022-11-24T08:04:40.074Z,10.11
2022-11-24T08:07:06.746Z,9.73
2022-11-24T08:09:33.295Z,9.21
2022-11-24T08:11:59.853Z,9.15
2022-11-24T08:14:26.385Z,9.16
2022-11-24T08:16:52.909Z,9.18
2022-11-24T08:19:19.419Z,9.09
2022-11-24T08:21:45.890Z,8.99
2022-11-24T08:24:15.120Z,9.05
2022-11-24T08:26:42.149Z,9.13
2022-11-24T08:29:08.680Z,9.57
2022-11-24T08:31:36.113Z,9.38
2022-11-24T08:34:04.022Z,9.23
2022-11-24T08:36:31.353Z,9.77
2022-11-24T08:38:59.618Z,9.98
2022-11-24T08:41:27.471Z,9.54
2022-11-24T08:43:54.929Z,9.83
2022-11-24T08:46:21.906Z,9.66
2022-11-24T08:48:50.290Z,9.68
2022-11-24T08:51:19.817Z,9.53
2022-11-24T08:53:46.528Z,9.52
2022-11-24T08:56:13.665Z,9.37
2022-11-24T08:58:41.464Z,8.86
2022-11-24T09:01:14.355Z,9.29
2022-11-24T09:03:49.735Z,9.29
2022-11-24T09:06:23.364Z,9.25
2022-11-24T09:08:50.140Z,9.18
2022-11-24T09:11:17.603Z,9.41
2022-11-24T09:13:44.650Z,9.28
2022-11-24T09:16:17.022Z,9.04
2022-11-24T09:18:44.244Z,9.12
2022-11-24T09:21:19.719Z,8.89
2022-11-24T09:23:51.189Z,8.51
2022-11-24T09:26:25.777Z,8.49
2022-11-24T09:28:56.490Z,8.28
2022-11-24T09:31:29.355Z,8.01
2022-11-24T09:33:56.303Z,8.27
2022-11-24T09:36:23.686Z,8.27
2022-11-24T09:38:50.185Z,8.50
2022-11-24T09:41:22.612Z,8.39
2022-11-24T09:43:54.952Z,8.35
2022-11-24T09:46:53.125Z,8.29
2022-11-24T09:49:30.919Z,8.41
2022-11-24T09:51:59.391Z,8.38
2022-11-24T09:54:30.451Z,8.34
2022-11-24T09:57:00.818Z,8.51
2022-11-24T09:59:28.372Z,8.46
2022-11-24T10:01:56.499Z,8.33
2022-11-24T10:04:37.698Z,8.31
2022-11-24T10:07:29.675Z,8.03
2022-11-24T10:10:25.545Z,8.14
2022-11-24T10:13:15.306Z,7.98
2022-11-24T10:15:53.939Z,7.85
2022-11-24T10:18:42.494Z,7.81
2022-11-24T10:21:33.502Z,7.87
2022-11-24T10:23:59.926Z,7.93
2022-11-24T10:26:36.215Z,7.73
2022-11-24T10:29:36.663Z,7.70
2022-11-24T10:32:11.484Z,7.71
2022-11-24T10:34:43.425Z,7.72
2022-11-24T10:37:19.420Z,7.62
2022-11-24T10:40:05.628Z,7.66
2022-11-24T10:42:37.811Z,7.83
2022-11-24T10:45:10.380Z,7.67
2022-11-24T10:47:37.642Z,7.77
2022-11-24T10:50:19.371Z,7.84
2022-11-24T10:53:22.477Z,7.99
2022-11-24T10:55:55.234Z,7.93
2022-11-24T10:58:38.433Z,7.87
2022-11-24T11:01:14.521Z,8.00
2022-11-24T11:03:47.951Z,8.13
2022-11-24T11:06:24.023Z,8.23
2022-11-24T11:09:10.494Z,8.33
2022-11-24T11:11:39.216Z,8.40
2022-11-24T11:14:07.788Z,8.44
2022-11-24T11:16:51.023Z,8.70
2022-11-24T11:19:49.841Z,9.28
2022-11-24T11:22:35.993Z,9.53
2022-11-24T11:25:14.373Z,9.23
2022-11-24T11:27:41.964Z,9.33
2022-11-24T11:36:11.162Z,10.43
2022-11-24T11:38:40.231Z,10.41
2022-11-24T11:41:13.932Z,10.33
2022-11-24T11:43:41.527Z,10.52
2022-11-24T11:46:08.101Z,11.06
2022-11-24T11:48:43.150Z,11.29
2022-11-24T11:51:25.668Z,11.55
2022-11-24T11:54:03.138Z,11.49
2022-11-24T11:56:45.030Z,12.06
2022-11-24T11:59:29.343Z,11.63
2022-11-24T12:02:11.136Z,11.22
2022-11-24T12:05:09.014Z,11.05
2022-11-24T12:08:20.968Z,10.93
2022-11-24T12:11:05.983Z,10.92
2022-11-24T12:13:42.299Z,11.11
2022-11-24T12:16:38.070Z,10.77
2022-11-24T12:19:17.995Z,10.99
2022-11-24T12:21:47.550Z,13.94
2022-11-24T12:24:31.004Z,12.76
2022-11-24T12:27:19.460Z,15.48
2022-11-24T12:30:13.186Z,13.81
2022-11-24T12:33:17.300Z,12.42
2022-11-24T12:35:51.916Z,11.70
2022-11-24T12:38:46.247Z,11.46
2022-11-24T12:41:42.455Z,11.12
2022-11-24T12:44:30.713Z,11.29
2022-11-24T12:47:09.913Z,11.30
2022-11-24T12:50:06.257Z,11.16
2022-11-24T12:52:47.878Z,10.96
2022-11-24T12:55:21.076Z,11.03
2022-11-24T12:58:11.847Z,11.16
2022-11-24T13:00:58.549Z,11.12
2022-11-24T13:03:55.821Z,11.45
2022-11-24T13:06:34.136Z,10.82
2022-11-24T13:09:09.106Z,11.46
2022-11-24T13:11:40.922Z,11.64
2022-11-24T13:14:15.371Z,11.60
2022-11-24T13:19:49.395Z,10.25
2022-11-24T13:22:26.159Z,10.16
2022-11-24T13:25:35.309Z,10.19
2022-11-24T13:28:04.203Z,10.35
2022-11-24T13:30:33.630Z,10.20
2022-11-24T13:33:27.045Z,10.44
2022-11-24T13:36:02.814Z,10.49
2022-11-24T13:39:02.648Z,10.37
2022-11-24T13:41:33.287Z,10.23
2022-11-24T13:44:15.030Z,10.33
2022-11-24T13:47:16.850Z,10.49
2022-11-24T13:49:46.511Z,10.31
2022-11-24T13:52:41.685Z,10.37
2022-11-24T13:55:15.557Z,10.10
2022-11-24T13:57:48.453Z,10.03
2022-11-24T14:00:18.286Z,9.97
2022-11-24T14:02:45.555Z,9.81
2022-11-24T14:05:17.732Z,9.72
2022-11-24T14:07:46.948Z,9.81
2022-11-24T14:10:17.015Z,9.68
2022-11-24T14:12:43.869Z,9.56
2022-11-24T14:15:29.391Z,9.37
2022-11-24T14:17:55.961Z,9.43
2022-11-24T14:20:25.787Z,9.39
2022-11-24T14:22:53.404Z,9.40
2022-11-24T14:25:40.546Z,9.57
2022-11-24T14:28:27.639Z,9.57
2022-11-24T14:31:18.088Z,9.33
2022-11-24T14:33:44.710Z,9.48
2022-11-24T14:36:18.400Z,9.28
2022-11-24T14:38:45.269Z,9.34
2022-11-24T14:41:26.207Z,9.25
2022-11-24T14:44:07.015Z,9.15
2022-11-24T14:46:34.831Z,9.12
2022-11-24T14:49:02.563Z,9.27
2022-11-24T14:51:36.175Z,9.49
2022-11-24T14:54:14.315Z,9.23
2022-11-24T14:56:40.922Z,9.30
2022-11-24T14:59:26.000Z,9.26
2022-11-24T15:01:52.788Z,9.26
2022-11-24T15:04:54.240Z,9.31
2022-11-24T15:07:16.363Z,9.19
2022-11-24T15:09:53.124Z,9.02
2022-11-24T15:12:28.629Z,8.70
2022-11-24T15:15:05.147Z,8.78
2022-11-24T15:17:31.990Z,8.74
2022-11-24T15:20:09.435Z,8.45
2022-11-24T15:22:40.270Z,8.53
2022-11-24T15:25:30.778Z,8.56
2022-11-24T15:27:57.439Z,8.58
2022-11-24T15:30:24.410Z,8.53
2022-11-24T15:32:56.399Z,8.43
2022-11-24T15:35:27.965Z,8.41
2022-11-24T15:37:54.494Z,8.24
2022-11-24T15:40:21.902Z,8.17
2022-11-24T15:42:53.792Z,8.05
2022-11-24T15:45:22.371Z,7.97
2022-11-24T15:47:49.192Z,7.96
2022-11-24T15:50:16.179Z,7.95
2022-11-24T15:52:43.825Z,7.97
2022-11-24T15:55:22.655Z,7.91
2022-11-24T15:57:49.551Z,7.82
2022-11-24T16:00:18.440Z,7.59
2022-11-24T16:02:45.236Z,7.53
2022-11-24T16:05:12.899Z,7.48
2022-11-24T16:07:39.755Z,7.49
2022-11-24T16:10:12.248Z,7.54
2022-11-24T16:12:38.788Z,7.30
2022-11-24T16:15:05.654Z,7.21
2022-11-24T16:17:32.122Z,7.47
2022-11-24T16:20:00.826Z,7.36
2022-11-24T16:22:27.551Z,7.21
2022-11-24T16:24:54.216Z,7.14
2022-11-24T16:27:20.736Z,6.86
2022-11-24T16:29:47.280Z,6.99
2022-11-24T16:32:13.756Z,6.75
2022-11-24T16:34:42.815Z,6.61
2022-11-24T16:37:09.829Z,6.47
2022-11-24T16:39:36.420Z,6.44
2022-11-24T16:42:03.492Z,6.43
2022-11-24T16:44:30.170Z,6.45
2022-11-24T16:46:57.097Z,6.64
2022-11-24T16:49:23.570Z,6.76
2022-11-24T16:51:50.076Z,6.98
2022-11-24T16:54:16.608Z,7.08
2022-11-24T16:56:46.700Z,7.12
2022-11-24T16:59:13.531Z,7.00
2022-11-24T17:01:40.682Z,7.19
2022-11-24T17:04:12.373Z,7.12
2022-11-24T17:06:39.804Z,7.23
2022-11-24T17:09:06.749Z,7.50
2022-11-24T17:11:36.000Z,7.62
2022-11-24T17:14:02.928Z,7.67
2022-11-24T17:16:32.038Z,7.71
2022-11-24T17:18:58.803Z,7.84
2022-11-24T17:21:27.491Z,7.77
2022-11-24T17:24:02.831Z,7.64
2022-11-24T17:26:29.461Z,7.63
2022-11-24T17:28:56.226Z,7.51
2022-11-24T17:31:24.810Z,7.52
2022-11-24T17:33:56.585Z,7.52
2022-11-24T17:36:26.719Z,7.41
2022-11-24T17:38:53.728Z,7.37
2022-11-24T17:41:23.953Z,7.42
2022-11-24T17:43:52.233Z,7.35
2022-11-24T17:46:19.533Z,7.34
2022-11-24T17:48:46.886Z,7.30
2022-11-24T17:51:16.355Z,7.23
2022-11-24T17:53:45.318Z,7.14
2022-11-24T17:56:17.255Z,7.04
2022-11-24T17:58:44.413Z,7.04
2022-11-24T18:01:12.646Z,6.88
2022-11-24T18:03:58.299Z,6.74
2022-11-24T18:06:46.484Z,6.68
2022-11-24T18:09:33.323Z,6.59
2022-11-24T18:12:20.185Z,6.79
2022-11-24T18:15:07.491Z,6.74
2022-11-24T18:17:54.805Z,6.64
2022-11-24T18:20:41.727Z,6.61
2022-11-24T18:23:29.966Z,6.57
2022-11-24T18:26:17.448Z,6.46
2022-11-24T18:29:04.836Z,6.52
2022-11-24T18:31:51.830Z,6.79
2022-11-24T18:34:38.760Z,6.62
2022-11-24T18:37:25.582Z,6.22
2022-11-24T18:40:12.563Z,5.82
2022-11-24T18:42:59.516Z,5.76
2022-11-24T18:45:47.479Z,5.96
2022-11-24T18:48:37.381Z,5.87
2022-11-24T18:51:24.260Z,5.85
2022-11-24T18:54:11.074Z,5.80
2022-11-24T18:57:03.086Z,6.09
2022-11-24T18:59:50.207Z,6.47
2022-11-24T19:02:37.078Z,6.20
2022-11-24T19:05:26.727Z,6.46
2022-11-24T19:08:13.580Z,6.56
2022-11-24T19:11:00.550Z,6.24
2022-11-24T19:13:49.045Z,6.42
2022-11-24T19:16:36.583Z,5.96
2022-11-24T19:19:23.387Z,5.97
2022-11-24T19:22:10.328Z,5.70
2022-11-24T19:24:57.138Z,5.65
2022-11-24T19:27:43.952Z,5.85
2022-11-24T19:30:30.767Z,5.58
2022-11-24T19:33:18.860Z,5.54
2022-11-24T19:36:17.219Z,5.65
2022-11-24T19:39:05.047Z,5.55
2022-11-24T19:41:53.113Z,5.53
2022-11-24T19:44:39.919Z,5.48
2022-11-24T19:47:27.773Z,5.54
2022-11-24T19:50:14.669Z,5.50
2022-11-24T19:53:01.465Z,5.28
2022-11-24T19:55:48.259Z,5.23
2022-11-24T19:58:36.448Z,5.49
2022-11-24T20:01:47.868Z,5.29
2022-11-24T20:04:38.289Z,5.40
2022-11-24T20:07:25.119Z,5.54
2022-11-24T20:10:11.950Z,5.64
2022-11-24T20:12:58.796Z,5.79
2022-11-24T20:15:45.637Z,5.72
2022-11-24T20:18:36.317Z,5.74
2022-11-24T20:21:28.735Z,5.66
2022-11-24T20:24:22.241Z,5.43
2022-11-24T20:27:09.029Z,5.28
2022-11-24T20:29:55.876Z,5.31
2022-11-24T20:32:42.667Z,5.26
2022-11-24T20:35:29.446Z,5.01
2022-11-24T20:38:16.219Z,5.15
2022-11-24T20:41:10.893Z,5.44
2022-11-24T20:44:04.947Z,5.50
2022-11-24T20:46:55.637Z,5.35
2022-11-24T20:49:42.415Z,5.20
2022-11-24T20:52:29.208Z,5.07
2022-11-24T20:55:16.034Z,4.95
2022-11-24T20:58:02.815Z,4.81
2022-11-24T21:00:49.643Z,4.71
2022-11-24T21:03:42.803Z,4.71
2022-11-24T21:06:30.691Z,4.63
2022-11-24T21:09:17.952Z,4.59
2022-11-24T21:12:05.222Z,4.49
2022-11-24T21:14:52.048Z,4.46
2022-11-24T21:17:39.132Z,4.45
2022-11-24T21:20:25.940Z,4.45
2022-11-24T21:23:13.890Z,4.35
2022-11-24T21:26:07.412Z,4.30
2022-11-24T21:28:57.280Z,4.28
2022-11-24T21:31:44.300Z,4.24
2022-11-24T21:34:31.167Z,4.14
2022-11-24T21:37:18.232Z,3.96
2022-11-24T21:40:05.770Z,4.07
2022-11-24T21:42:52.632Z,4.08
2022-11-24T21:45:39.474Z,4.01
2022-11-24T21:48:26.319Z,4.01
2022-11-24T21:51:18.107Z,4.22
2022-11-24T21:54:05.588Z,3.95
2022-11-24T21:56:53.369Z,3.89
2022-11-24T21:59:40.252Z,3.82
2022-11-24T22:02:27.206Z,3.84
2022-11-24T22:05:14.157Z,3.93
2022-11-24T22:08:00.980Z,3.72
2022-11-24T22:10:47.883Z,3.68
2022-11-24T22:13:34.723Z,3.52
2022-11-24T22:16:23.971Z,3.68
2022-11-24T22:19:10.838Z,3.86
2022-11-24T22:21:57.749Z,3.88
2022-11-24T22:24:44.568Z,3.74
2022-11-24T22:27:31.362Z,3.75
2022-11-24T22:30:18.254Z,3.80
2022-11-24T22:33:05.072Z,3.79
2022-11-24T22:35:59.283Z,3.70
2022-11-24T22:38:46.783Z,3.63
2022-11-24T22:41:35.109Z,3.61
2022-11-24T22:44:21.961Z,3.51
2022-11-24T22:47:08.811Z,3.54
2022-11-24T22:49:55.721Z,3.44
2022-11-24T22:52:42.580Z,3.53
2022-11-24T22:55:29.408Z,3.53
2022-11-24T22:58:16.411Z,3.40
2022-11-24T23:01:11.473Z,3.50
2022-11-24T23:03:58.386Z,3.48
2022-11-24T23:06:45.725Z,3.43
2022-11-24T23:09:32.973Z,3.33
2022-11-24T23:12:19.787Z,3.35
2022-11-24T23:15:07.291Z,3.25
2022-11-24T23:17:54.103Z,3.33
2022-11-24T23:20:40.879Z,3.39
2022-11-24T23:23:27.705Z,3.35
2022-11-24T23:26:17.757Z,3.26
2022-11-24T23:29:05.730Z,3.22
2022-11-24T23:31:52.566Z,3.12
2022-11-24T23:34:39.412Z,3.10
2022-11-24T23:37:39.247Z,3.02
2022-11-24T23:40:26.491Z,2.92
2022-11-24T23:43:13.330Z,2.93
2022-11-24T23:46:04.011Z,3.00
2022-11-24T23:48:51.974Z,2.92
2022-11-24T23:51:41.922Z,2.92
2022-11-24T23:54:28.761Z,2.82
2022-11-24T23:57:15.646Z,2.74
